Capac, Michigan
Current Conditions -  °F | °C
As of 9:13 PM on Friday 28 Nov 2014 (Local Time) from KD95 Reporting Station
Overcast Overcast  
Wind Chill: 25°   Ceiling: 4600
Heat Index: 25°   Visibility: 10mi
Dew Point: 21°   Wind: 3mph
Humidity: 86%   Direction: 160°SSE
Pressure: 30.1"   Gusts: NA
Location:  43.01°N, 82.93°W
Report Text: KD95 290213Z AUTO 16003KT 10SM BKN046 OVC050 M04/M06 A3010 RMK AO2 T10401061
Loading
Personal Weather Stations






























Interactive Weather Map New forecast layout! Learn more

10-Day Weather Forecast

Advertisements
Track Severe Weather on mobile